Time;durP1;ratioP1;P1;durP2;ratioP2;P2;SDS_P1;SDS_P2;PMS_P1;PMS_P2;Temp;Humidity;BMP_temperature;BMP_pressure;BME280_temperature;BME280_humidity;BME280_pressure;Samples;Min_cycle;Max_cycle;Signal;HPM_P1;HPM_P2
2021/10/13 00:00:49;;;;;;;6.77;3.80;;;;;;;;;;5036031;28;20022;-90
2021/10/13 00:03:15;;;;;;;7.97;4.33;;;;;;;;;;5039342;28;20060;-90
2021/10/13 00:05:40;;;;;;;8.30;3.63;;;;;;;;;;5033597;28;20033;-90
2021/10/13 00:08:05;;;;;;;8.07;3.70;;;;;;;;;;5040312;28;20033;-90
2021/10/13 00:10:30;;;;;;;9.10;4.20;;;;;;;;;;5034638;28;20048;-89
2021/10/13 00:12:55;;;;;;;9.47;3.80;;;;;;;;;;5039642;28;20028;-90
2021/10/13 00:15:21;;;;;;;8.73;3.70;;;;;;;;;;5057323;28;20021;-90
2021/10/13 00:17:46;;;;;;;8.00;3.50;;;;;;;;;;5039553;28;20028;-90
2021/10/13 00:20:11;;;;;;;6.80;3.43;;;;;;;;;;5040485;28;20029;-90
2021/10/13 00:22:37;;;;;;;13.37;3.83;;;;;;;;;;5040565;28;20026;-90
2021/10/13 00:25:02;;;;;;;8.67;3.20;;;;;;;;;;5035007;28;20108;-90
2021/10/13 00:27:28;;;;;;;12.27;3.67;;;;;;;;;;5043093;28;20013;-90
2021/10/13 00:29:53;;;;;;;4.57;2.93;;;;;;;;;;5047563;28;20021;-90
2021/10/13 00:32:18;;;;;;;6.60;3.20;;;;;;;;;;5038752;28;20026;-90
2021/10/13 00:34:43;;;;;;;8.40;2.97;;;;;;;;;;5037918;28;20017;-90
2021/10/13 00:37:08;;;;;;;4.97;2.90;;;;;;;;;;5039507;28;20071;-90
2021/10/13 00:39:34;;;;;;;6.93;3.07;;;;;;;;;;5039578;28;20060;-90
2021/10/13 00:41:59;;;;;;;4.63;2.67;;;;;;;;;;5034599;28;20496;-90
2021/10/13 00:44:24;;;;;;;4.70;2.63;;;;;;;;;;5064434;28;20033;-89
2021/10/13 00:46:49;;;;;;;4.20;2.73;;;;;;;;;;5039184;28;20030;-90
2021/10/13 00:49:15;;;;;;;4.00;2.50;;;;;;;;;;5039870;28;20027;-91
2021/10/13 00:51:40;;;;;;;4.87;2.73;;;;;;;;;;5061595;28;20025;-90
2021/10/13 00:54:05;;;;;;;9.27;3.60;;;;;;;;;;5040782;28;20030;-91
2021/10/13 00:56:31;;;;;;;6.60;4.03;;;;;;;;;;5039876;28;20530;-91
2021/10/13 00:58:56;;;;;;;8.07;3.53;;;;;;;;;;5039172;28;20163;-90
2021/10/13 01:01:40;;;;;;;8.73;3.80;;;;;;;;;;5040344;28;20017;-90
2021/10/13 01:04:24;;;;;;;8.30;4.17;;;;;;;;;;5069781;28;20473;-90
2021/10/13 01:07:08;;;;;;;8.70;3.93;;;;;;;;;;5036961;28;20037;-90
2021/10/13 01:09:37;;;;;;;8.07;3.80;;;;;;;;;;5038462;28;20018;-90
2021/10/13 01:12:11;;;;;;;11.00;4.63;;;;;;;;;;5061464;28;20065;-90
2021/10/13 01:14:42;;;;;;;10.60;4.37;;;;;;;;;;5038334;28;20021;-90
2021/10/13 01:17:12;;;;;;;10.47;3.90;;;;;;;;;;5067331;28;20022;-90
2021/10/13 01:19:44;;;;;;;8.80;4.23;;;;;;;;;;5038543;28;20044;-89
2021/10/13 01:22:29;;;;;;;12.10;5.03;;;;;;;;;;5039460;28;20018;-90
2021/10/13 01:25:12;;;;;;;14.77;4.73;;;;;;;;;;5021666;28;20120;-89
2021/10/13 01:27:43;;;;;;;9.55;4.05;;;;;;;;;;5031523;28;20097;-91
2021/10/13 01:30:10;;;;;;;8.63;4.27;;;;;;;;;;5038212;28;20465;-90
2021/10/13 01:32:38;;;;;;;6.50;3.70;;;;;;;;;;5038712;28;20021;-90
2021/10/13 01:35:04;;;;;;;6.00;3.03;;;;;;;;;;5038815;28;20584;-90
2021/10/13 01:37:39;;;;;;;12.43;3.43;;;;;;;;;;5039216;28;20043;-90
2021/10/13 01:40:05;;;;;;;6.80;3.67;;;;;;;;;;5039743;28;20074;-90
2021/10/13 01:42:33;;;;;;;6.77;3.40;;;;;;;;;;5039133;28;20081;-90
2021/10/13 01:44:58;;;;;;;7.17;3.60;;;;;;;;;;5070791;28;20044;-90
2021/10/13 01:47:25;;;;;;;6.63;3.37;;;;;;;;;;5042355;28;20048;-90
2021/10/13 01:49:52;;;;;;;7.30;3.27;;;;;;;;;;5056094;28;20026;-90
2021/10/13 01:52:18;;;;;;;8.80;3.63;;;;;;;;;;5037399;28;20041;-89
2021/10/13 01:54:43;;;;;;;10.23;2.90;;;;;;;;;;5042330;28;20492;-90
2021/10/13 01:57:09;;;;;;;8.90;3.40;;;;;;;;;;5075976;28;20025;-90
2021/10/13 01:59:38;;;;;;;6.83;3.63;;;;;;;;;;5053628;28;20029;-90
2021/10/13 02:02:03;;;;;;;5.83;3.23;;;;;;;;;;5067353;28;20022;-90
2021/10/13 02:04:28;;;;;;;6.80;3.27;;;;;;;;;;5042009;28;20100;-90
2021/10/13 02:06:54;;;;;;;6.93;3.40;;;;;;;;;;5075808;28;20068;-90
2021/10/13 02:09:20;;;;;;;5.63;2.80;;;;;;;;;;5046338;28;20025;-89
2021/10/13 02:11:46;;;;;;;6.83;3.47;;;;;;;;;;5066380;28;20025;-90
2021/10/13 02:14:12;;;;;;;7.17;3.17;;;;;;;;;;5043214;28;20034;-91
2021/10/13 02:16:39;;;;;;;6.40;3.60;;;;;;;;;;5040959;28;20024;-90
2021/10/13 02:19:05;;;;;;;6.37;3.77;;;;;;;;;;5040996;28;20222;-90
2021/10/13 02:21:33;;;;;;;7.57;3.97;;;;;;;;;;5041046;28;20465;-90
2021/10/13 02:23:59;;;;;;;8.13;4.00;;;;;;;;;;5041728;28;20029;-89
2021/10/13 02:26:34;;;;;;;9.37;3.93;;;;;;;;;;5042118;28;20531;-89
2021/10/13 02:29:05;;;;;;;13.57;3.93;;;;;;;;;;5072663;28;20033;-90
2021/10/13 02:31:31;;;;;;;8.90;4.00;;;;;;;;;;5040589;28;20061;-90
2021/10/13 02:33:56;;;;;;;28.27;5.93;;;;;;;;;;5074517;28;20028;-90
2021/10/13 02:36:21;;;;;;;13.70;4.30;;;;;;;;;;5035606;28;20053;-90
2021/10/13 02:38:47;;;;;;;9.07;3.63;;;;;;;;;;5040827;28;20022;-91
2021/10/13 02:41:12;;;;;;;10.47;3.93;;;;;;;;;;5040439;28;20028;-90
2021/10/13 02:43:37;;;;;;;11.10;4.47;;;;;;;;;;5041773;28;20041;-90
2021/10/13 02:46:07;;;;;;;8.70;4.40;;;;;;;;;;5040441;28;20032;-90
2021/10/13 02:48:33;;;;;;;7.67;3.53;;;;;;;;;;5039206;28;20044;-90
2021/10/13 02:51:01;;;;;;;12.87;4.60;;;;;;;;;;5039187;28;20079;-90
2021/10/13 02:53:42;;;;;;;10.93;3.87;;;;;;;;;;5040712;28;20049;-90
2021/10/13 02:56:20;;;;;;;12.67;5.27;;;;;;;;;;5054512;28;20029;-90
2021/10/13 02:58:56;;;;;;;9.63;4.43;;;;;;;;;;5039314;28;20025;-90
2021/10/13 03:01:21;;;;;;;12.97;4.47;;;;;;;;;;5072502;28;20056;-90
2021/10/13 03:03:54;;;;;;;7.87;4.40;;;;;;;;;;5040253;28;20030;-90
2021/10/13 03:06:19;;;;;;;7.43;3.73;;;;;;;;;;5041012;28;20489;-91
2021/10/13 03:08:46;;;;;;;10.23;4.70;;;;;;;;;;5039850;28;20069;-90
2021/10/13 03:11:12;;;;;;;11.03;4.90;;;;;;;;;;5036881;28;20036;-90
2021/10/13 03:13:38;;;;;;;9.67;4.47;;;;;;;;;;5036709;28;20022;-90
2021/10/13 03:16:04;;;;;;;7.93;4.03;;;;;;;;;;5038246;28;20022;-90
2021/10/13 03:18:30;;;;;;;14.57;4.47;;;;;;;;;;5060151;28;20018;-90
2021/10/13 03:20:56;;;;;;;11.97;4.00;;;;;;;;;;5039615;28;20010;-90
2021/10/13 03:23:22;;;;;;;8.20;4.30;;;;;;;;;;5039283;28;20032;-90
2021/10/13 03:25:51;;;;;;;7.10;3.80;;;;;;;;;;5070897;28;20033;-90
2021/10/13 03:28:17;;;;;;;8.73;3.83;;;;;;;;;;5037916;28;20017;-90
2021/10/13 03:30:44;;;;;;;11.67;4.10;;;;;;;;;;5054690;28;20025;-90
2021/10/13 03:33:09;;;;;;;10.50;4.23;;;;;;;;;;5038938;28;20132;-88
2021/10/13 03:35:34;;;;;;;11.77;4.43;;;;;;;;;;5058104;28;20033;-90
2021/10/13 03:38:01;;;;;;;8.73;4.20;;;;;;;;;;5037980;28;20029;-90
2021/10/13 03:40:27;;;;;;;10.73;4.40;;;;;;;;;;5071271;28;20081;-90
2021/10/13 03:42:52;;;;;;;11.53;4.90;;;;;;;;;;5038930;28;20017;-90
2021/10/13 03:45:18;;;;;;;12.23;4.53;;;;;;;;;;5038232;28;20072;-90
2021/10/13 03:47:44;;;;;;;13.83;4.57;;;;;;;;;;5064995;28;20026;-90
2021/10/13 03:50:10;;;;;;;15.10;4.80;;;;;;;;;;5038067;28;20051;-90
2021/10/13 03:52:36;;;;;;;9.30;4.63;;;;;;;;;;5038390;28;20021;-90
2021/10/13 03:55:01;;;;;;;11.37;4.60;;;;;;;;;;5042943;28;20032;-90
2021/10/13 03:57:27;;;;;;;13.50;5.30;;;;;;;;;;5041542;28;20026;-90
2021/10/13 03:59:52;;;;;;;8.90;4.87;;;;;;;;;;5037417;28;20028;-90
2021/10/13 04:02:17;;;;;;;10.23;4.90;;;;;;;;;;5036922;28;20026;-90
2021/10/13 04:04:42;;;;;;;10.33;5.20;;;;;;;;;;5035635;28;20033;-90
2021/10/13 04:07:07;;;;;;;11.10;4.97;;;;;;;;;;5037488;28;20025;-89
2021/10/13 04:09:33;;;;;;;9.43;4.57;;;;;;;;;;5038452;28;20018;-90
2021/10/13 04:11:58;;;;;;;8.27;4.70;;;;;;;;;;5038126;28;20044;-90
2021/10/13 04:14:23;;;;;;;11.57;5.03;;;;;;;;;;5037477;28;20033;-90
2021/10/13 04:16:48;;;;;;;10.70;4.63;;;;;;;;;;5037096;28;20115;-90
2021/10/13 04:19:13;;;;;;;9.90;4.73;;;;;;;;;;5063496;28;20014;-91
2021/10/13 04:21:39;;;;;;;7.27;4.47;;;;;;;;;;5033482;28;20373;-91
2021/10/13 04:24:04;;;;;;;7.67;4.70;;;;;;;;;;5034882;28;20033;-91
2021/10/13 04:26:29;;;;;;;9.90;4.10;;;;;;;;;;5037490;28;20030;-91
2021/10/13 04:28:54;;;;;;;8.03;4.13;;;;;;;;;;5038478;28;20023;-91
2021/10/13 04:31:20;;;;;;;14.05;4.60;;;;;;;;;;5036866;28;20027;-91
2021/10/13 04:33:45;;;;;;;11.10;4.80;;;;;;;;;;5062863;28;20503;-91
2021/10/13 04:36:10;;;;;;;10.15;4.82;;;;;;;;;;5037070;28;20109;-91
2021/10/13 04:38:35;;;;;;;7.63;4.07;;;;;;;;;;5043030;28;20536;-91
2021/10/13 04:41:01;;;;;;;8.80;4.47;;;;;;;;;;5037059;28;20017;-91
2021/10/13 04:43:26;;;;;;;13.60;5.20;;;;;;;;;;5036749;28;20076;-91
2021/10/13 04:45:51;;;;;;;9.03;4.60;;;;;;;;;;5037198;28;20075;-91
2021/10/13 04:48:16;;;;;;;8.77;4.40;;;;;;;;;;5038312;28;20021;-91
2021/10/13 04:50:42;;;;;;;8.03;4.30;;;;;;;;;;5037305;28;20508;-91
2021/10/13 04:53:07;;;;;;;10.70;4.63;;;;;;;;;;5037043;28;20022;-91
2021/10/13 04:55:32;;;;;;;8.45;4.43;;;;;;;;;;5038182;28;20036;-90
2021/10/13 04:57:57;;;;;;;9.73;4.93;;;;;;;;;;5037021;28;20040;-91
2021/10/13 05:00:23;;;;;;;11.07;4.97;;;;;;;;;;5038603;28;20477;-91
2021/10/13 05:02:48;;;;;;;10.27;4.70;;;;;;;;;;5037371;28;20013;-91
2021/10/13 05:05:13;;;;;;;11.85;5.10;;;;;;;;;;5038150;28;20362;-92
2021/10/13 05:07:38;;;;;;;12.13;5.20;;;;;;;;;;5064435;28;20018;-91
2021/10/13 05:10:04;;;;;;;12.43;5.47;;;;;;;;;;5065893;28;20544;-91
2021/10/13 05:12:29;;;;;;;10.87;5.13;;;;;;;;;;5039320;28;20021;-91
2021/10/13 05:14:54;;;;;;;10.87;5.77;;;;;;;;;;5033346;28;20053;-91
2021/10/13 05:17:19;;;;;;;10.03;5.73;;;;;;;;;;5030987;28;20013;-91
2021/10/13 05:19:45;;;;;;;15.67;6.13;;;;;;;;;;5037205;28;20021;-91
2021/10/13 05:22:10;;;;;;;14.77;5.70;;;;;;;;;;5041122;28;20033;-91
2021/10/13 05:24:35;;;;;;;17.57;5.50;;;;;;;;;;5041545;28;20353;-91
2021/10/13 05:27:00;;;;;;;13.63;5.80;;;;;;;;;;5041896;28;20060;-91
2021/10/13 05:29:26;;;;;;;9.67;5.23;;;;;;;;;;5041555;28;20082;-91
2021/10/13 05:31:52;;;;;;;11.87;5.63;;;;;;;;;;5041379;28;20112;-91
2021/10/13 05:34:18;;;;;;;13.83;5.60;;;;;;;;;;5040308;28;20064;-91
2021/10/13 05:36:43;;;;;;;9.77;4.73;;;;;;;;;;5040666;28;20025;-91
2021/10/13 05:39:09;;;;;;;10.33;5.73;;;;;;;;;;5037557;28;20132;-91
2021/10/13 05:41:34;;;;;;;11.87;5.67;;;;;;;;;;5041932;28;20548;-92
2021/10/13 05:43:59;;;;;;;11.60;6.37;;;;;;;;;;5041386;28;20415;-91
2021/10/13 05:46:24;;;;;;;15.47;5.93;;;;;;;;;;5045959;28;20535;-91
2021/10/13 05:48:49;;;;;;;13.73;6.30;;;;;;;;;;5041750;28;20108;-91
2021/10/13 05:51:15;;;;;;;11.33;5.50;;;;;;;;;;5038666;28;20029;-91
2021/10/13 05:53:40;;;;;;;12.77;5.90;;;;;;;;;;5043119;28;20029;-91
2021/10/13 05:56:05;;;;;;;11.43;5.30;;;;;;;;;;5067061;28;20026;-91
2021/10/13 05:58:31;;;;;;;16.33;5.57;;;;;;;;;;5067697;28;20132;-91
2021/10/13 06:00:56;;;;;;;12.63;5.77;;;;;;;;;;5039980;28;20041;-91
2021/10/13 06:03:21;;;;;;;10.87;5.63;;;;;;;;;;5058058;28;20030;-91
2021/10/13 06:05:47;;;;;;;9.57;4.80;;;;;;;;;;5041783;28;20063;-92
2021/10/13 06:08:13;;;;;;;8.40;5.00;;;;;;;;;;5082588;28;20030;-91
2021/10/13 06:10:39;;;;;;;10.37;4.67;;;;;;;;;;5076626;28;20029;-91
2021/10/13 06:13:04;;;;;;;9.00;4.97;;;;;;;;;;5079892;28;20187;-92
2021/10/13 06:15:34;;;;;;;10.55;5.57;;;;;;;;;;5076731;28;20551;-92
2021/10/13 06:18:00;;;;;;;9.15;5.15;;;;;;;;;;5053740;28;20029;-92
2021/10/13 06:20:25;;;;;;;11.67;5.90;;;;;;;;;;5050752;28;20022;-93
2021/10/13 06:22:53;;;;;;;12.23;5.85;;;;;;;;;;5044942;28;20017;-91
2021/10/13 06:25:19;;;;;;;15.43;5.67;;;;;;;;;;5077267;28;20036;-91
2021/10/13 06:27:44;;;;;;;12.37;5.37;;;;;;;;;;5045488;28;20029;-92
2021/10/13 06:30:09;;;;;;;9.57;4.93;;;;;;;;;;5047287;28;20024;-91
2021/10/13 06:32:36;;;;;;;11.05;5.13;;;;;;;;;;5042117;28;20079;-92
2021/10/13 06:35:01;;;;;;;9.43;5.43;;;;;;;;;;5076380;28;20072;-91
2021/10/13 06:37:26;;;;;;;10.80;5.30;;;;;;;;;;5050004;28;20009;-92
2021/10/13 06:39:52;;;;;;;15.17;6.60;;;;;;;;;;5042669;28;20021;-92
2021/10/13 06:42:17;;;;;;;13.90;5.93;;;;;;;;;;5043259;28;20076;-91
2021/10/13 06:44:42;;;;;;;18.77;8.40;;;;;;;;;;5041423;28;20029;-91
2021/10/13 06:47:07;;;;;;;17.47;7.33;;;;;;;;;;5052247;28;20030;-92
2021/10/13 06:49:33;;;;;;;14.63;6.30;;;;;;;;;;5068728;28;20025;-92
2021/10/13 06:51:58;;;;;;;10.10;5.57;;;;;;;;;;5059622;28;20022;-91
2021/10/13 06:54:23;;;;;;;12.20;6.07;;;;;;;;;;5043365;28;20049;-91
2021/10/13 06:56:48;;;;;;;10.87;5.73;;;;;;;;;;5085309;28;20029;-92
2021/10/13 06:59:14;;;;;;;12.50;5.73;;;;;;;;;;5075596;28;20032;-92
2021/10/13 07:01:39;;;;;;;9.60;5.80;;;;;;;;;;5041391;28;20049;-91
2021/10/13 07:04:04;;;;;;;12.33;5.97;;;;;;;;;;5041498;28;20040;-91
2021/10/13 07:06:29;;;;;;;19.30;6.60;;;;;;;;;;5041679;28;20036;-92
2021/10/13 07:08:54;;;;;;;10.93;6.65;;;;;;;;;;5063448;28;20052;-91
2021/10/13 07:11:21;;;;;;;19.67;6.90;;;;;;;;;;5036819;28;20048;-92
2021/10/13 07:13:47;;;;;;;15.87;6.53;;;;;;;;;;5075709;28;20553;-91
2021/10/13 07:16:12;;;;;;;17.40;7.15;;;;;;;;;;5038828;28;20053;-92
2021/10/13 07:18:37;;;;;;;21.13;7.25;;;;;;;;;;5052232;28;20025;-89
2021/10/13 07:21:03;;;;;;;16.37;7.10;;;;;;;;;;5062666;28;20022;-92
2021/10/13 07:23:28;;;;;;;17.58;7.05;;;;;;;;;;5033860;28;20033;-92
2021/10/13 07:25:54;;;;;;;14.73;7.38;;;;;;;;;;5034073;28;20461;-93
2021/10/13 07:28:19;;;;;;;12.85;6.43;;;;;;;;;;5069659;28;20080;-92
2021/10/13 07:30:44;;;;;;;14.20;6.70;;;;;;;;;;5044144;28;20029;-93
2021/10/13 07:33:10;;;;;;;12.10;6.65;;;;;;;;;;5033428;28;20076;-92
2021/10/13 07:35:35;;;;;;;12.25;6.82;;;;;;;;;;5038476;28;20024;-92
2021/10/13 07:38:01;;;;;;;19.33;6.78;;;;;;;;;;5033548;28;20065;-92
2021/10/13 07:40:26;;;;;;;21.20;6.95;;;;;;;;;;5036260;28;20350;-92
2021/10/13 07:42:51;;;;;;;16.92;7.25;;;;;;;;;;5061734;28;20036;-94
2021/10/13 07:45:18;;;;;;;20.33;7.55;;;;;;;;;;5034455;28;20056;-92
2021/10/13 07:47:43;;;;;;;12.80;6.65;;;;;;;;;;5022911;28;20075;-93
2021/10/13 07:50:08;;;;;;;12.73;5.85;;;;;;;;;;5075102;28;20419;-91
2021/10/13 07:52:34;;;;;;;12.98;6.15;;;;;;;;;;5039693;28;20551;-92
2021/10/13 07:54:59;;;;;;;10.30;5.75;;;;;;;;;;5034118;28;20041;-92
2021/10/13 07:57:24;;;;;;;13.70;5.93;;;;;;;;;;5034297;28;20388;-93
2021/10/13 07:59:50;;;;;;;13.68;6.63;;;;;;;;;;5036710;28;20025;-92
2021/10/13 08:02:15;;;;;;;12.93;6.47;;;;;;;;;;5040030;28;20022;-92
2021/10/13 08:04:40;;;;;;;14.02;7.05;;;;;;;;;;5032929;28;20107;-92
2021/10/13 08:07:06;;;;;;;13.07;6.53;;;;;;;;;;5035589;28;20033;-91
2021/10/13 08:09:32;;;;;;;11.65;6.15;;;;;;;;;;5032823;28;20036;-91
2021/10/13 08:11:58;;;;;;;18.52;8.60;;;;;;;;;;5071670;28;20088;-91
2021/10/13 08:14:23;;;;;;;14.23;7.70;;;;;;;;;;5045431;28;20388;-90
2021/10/13 08:16:48;;;;;;;14.13;7.20;;;;;;;;;;5032983;28;20018;-90
2021/10/13 08:19:13;;;;;;;13.32;7.30;;;;;;;;;;5035140;28;20111;-90
2021/10/13 08:21:39;;;;;;;14.60;7.97;;;;;;;;;;5034182;28;20020;-93
2021/10/13 08:24:04;;;;;;;15.82;7.70;;;;;;;;;;5038590;28;20067;-93
2021/10/13 08:26:30;;;;;;;17.88;6.85;;;;;;;;;;5032700;28;20489;-92
2021/10/13 08:28:55;;;;;;;14.93;6.55;;;;;;;;;;5062489;28;20164;-91
2021/10/13 08:31:20;;;;;;;12.95;7.00;;;;;;;;;;5028640;28;20064;-93
2021/10/13 08:33:46;;;;;;;16.58;7.25;;;;;;;;;;5038873;28;20112;-90
2021/10/13 08:36:11;;;;;;;14.70;6.97;;;;;;;;;;5033783;28;20505;-91
2021/10/13 08:38:37;;;;;;;13.45;7.45;;;;;;;;;;5032620;28;20079;-92
2021/10/13 08:41:03;;;;;;;16.05;7.28;;;;;;;;;;5056435;28;20025;-92
2021/10/13 08:43:28;;;;;;;12.50;6.40;;;;;;;;;;5029759;28;20029;-90
2021/10/13 08:45:54;;;;;;;18.70;7.40;;;;;;;;;;5033546;28;20104;-90
2021/10/13 08:48:19;;;;;;;15.70;7.32;;;;;;;;;;5038134;28;20117;-91
2021/10/13 08:50:48;;;;;;;16.20;7.72;;;;;;;;;;5032476;28;20370;-90
2021/10/13 08:53:14;;;;;;;19.90;8.25;;;;;;;;;;5032617;28;20017;-91
2021/10/13 08:55:40;;;;;;;22.65;7.93;;;;;;;;;;5067383;28;20021;-91
2021/10/13 08:58:13;;;;;;;14.85;6.90;;;;;;;;;;5038039;28;20432;-90
2021/10/13 09:00:39;;;;;;;20.45;7.50;;;;;;;;;;5036304;28;20013;-88
2021/10/13 09:03:05;;;;;;;12.40;7.18;;;;;;;;;;5037139;28;20033;-91
2021/10/13 09:05:30;;;;;;;14.48;7.47;;;;;;;;;;5071435;28;20171;-91
2021/10/13 09:07:56;;;;;;;12.77;6.55;;;;;;;;;;5046115;28;20021;-91
2021/10/13 09:10:28;;;;;;;19.30;7.47;;;;;;;;;;5036668;28;20025;-90
2021/10/13 09:12:53;;;;;;;15.85;7.55;;;;;;;;;;5044406;28;20152;-88
2021/10/13 09:15:22;;;;;;;14.65;8.10;;;;;;;;;;5036111;28;20116;-91
2021/10/13 09:17:55;;;;;;;18.25;7.47;;;;;;;;;;5036140;28;20104;-91
2021/10/13 09:20:22;;;;;;;14.40;7.30;;;;;;;;;;5049591;28;20021;-90
2021/10/13 09:22:54;;;;;;;15.38;6.85;;;;;;;;;;5036992;28;20033;-91
2021/10/13 09:25:19;;;;;;;;;;;;;;;;;;5031725;28;20108;-91
2021/10/13 09:27:45;;;;;;;18.92;6.94;;;;;;;;;;5057336;28;19944;-90
2021/10/13 09:30:11;;;;;;;11.80;6.32;;;;;;;;;;5043412;28;20093;-89
2021/10/13 09:32:43;;;;;;;16.02;6.72;;;;;;;;;;5058504;28;20026;-89
2021/10/13 09:35:22;;;;;;;17.10;6.35;;;;;;;;;;5061487;28;20032;-91
2021/10/13 09:37:48;;;;;;;15.40;6.60;;;;;;;;;;5067122;28;20033;-91
2021/10/13 09:40:24;;;;;;;15.95;8.30;;;;;;;;;;5051928;28;20029;-90
2021/10/13 09:42:49;;;;;;;13.43;7.63;;;;;;;;;;5042082;28;20431;-90
2021/10/13 09:45:15;;;;;;;16.55;7.90;;;;;;;;;;5035399;28;20021;-89
2021/10/13 09:47:40;;;;;;;15.23;7.82;;;;;;;;;;5042466;28;20029;-91
2021/10/13 09:50:10;;;;;;;17.00;7.70;;;;;;;;;;5065949;28;20104;-91
2021/10/13 09:52:35;;;;;;;17.85;8.10;;;;;;;;;;5035215;28;20511;-91
2021/10/13 09:55:03;;;;;;;16.20;8.35;;;;;;;;;;5035402;28;20033;-91
2021/10/13 09:57:29;;;;;;;18.98;8.25;;;;;;;;;;5072410;28;20017;-91
2021/10/13 09:59:59;;;;;;;16.85;8.13;;;;;;;;;;5061717;28;20053;-91
2021/10/13 10:02:25;;;;;;;16.45;6.80;;;;;;;;;;5066700;28;20096;-91
2021/10/13 10:04:51;;;;;;;19.25;8.05;;;;;;;;;;5041685;28;20085;-92
2021/10/13 10:07:19;;;;;;;16.15;7.78;;;;;;;;;;5041077;28;20028;-91
2021/10/13 10:10:04;;;;;;;15.05;7.93;;;;;;;;;;5036666;28;20028;-93
2021/10/13 10:12:29;;;;;;;20.33;7.82;;;;;;;;;;5035110;28;20053;-93
2021/10/13 10:14:54;;;;;;;15.75;7.57;;;;;;;;;;5038772;28;20550;-95
2021/10/13 10:17:39;;;;;;;14.95;7.35;;;;;;;;;;5044185;28;20028;-90
2021/10/13 10:20:04;;;;;;;14.20;8.48;;;;;;;;;;5035170;28;20761;-93
2021/10/13 10:22:43;;;;;;;15.75;7.75;;;;;;;;;;5035291;28;20033;-94
2021/10/13 10:25:09;;;;;;;19.25;7.72;;;;;;;;;;5034723;28;20079;-95
2021/10/13 10:27:34;;;;;;;18.73;8.15;;;;;;;;;;5040182;28;20413;-94
2021/10/13 10:30:08;;;;;;;21.35;8.82;;;;;;;;;;5037427;28;20484;-96
2021/10/13 10:32:43;;;;;;;17.77;7.75;;;;;;;;;;5061766;28;20049;-95
2021/10/13 10:35:16;;;;;;;16.10;7.57;;;;;;;;;;5067042;28;20075;-95
2021/10/13 10:37:41;;;;;;;18.23;8.95;;;;;;;;;;5035320;28;20027;-96
2021/10/13 10:40:09;;;;;;;19.15;9.73;;;;;;;;;;5065559;28;20022;-95
2021/10/13 10:42:44;;;;;;;20.92;8.88;;;;;;;;;;5029794;28;20017;-95
2021/10/13 10:45:17;;;;;;;22.08;9.68;;;;;;;;;;5034448;28;20481;-96
2021/10/13 10:47:49;;;;;;;17.33;9.10;;;;;;;;;;5034719;28;20021;-95
2021/10/13 10:50:14;;;;;;;;;;;;;;;;;;5035089;28;20029;-96
2021/10/13 10:52:59;;;;;;;19.40;9.57;;;;;;;;;;5067877;28;19932;-96
2021/10/13 10:55:33;;;;;;;24.30;11.23;;;;;;;;;;5034518;28;20484;-96
2021/10/13 10:58:11;;;;;;;25.98;10.25;;;;;;;;;;5034488;28;20025;-96
2021/10/13 11:00:37;;;;;;;17.67;10.13;;;;;;;;;;5034403;28;20032;-96
2021/10/13 11:03:22;;;;;;;19.73;8.82;;;;;;;;;;5034346;28;20029;-96
2021/10/13 11:05:47;;;;;;;16.85;9.25;;;;;;;;;;5028466;28;20543;-96
2021/10/13 11:08:13;;;;;;;20.00;9.43;;;;;;;;;;5034381;28;20033;-96
2021/10/13 11:10:39;;;;;;;15.32;8.00;;;;;;;;;;5057808;28;20482;-96
2021/10/13 11:13:04;;;;;;;19.23;8.13;;;;;;;;;;5034162;28;20033;-96
2021/10/13 11:15:30;;;;;;;21.17;9.02;;;;;;;;;;5034316;28;20025;-96
2021/10/13 11:17:56;;;;;;;13.88;7.72;;;;;;;;;;5033469;28;20100;-96
2021/10/13 11:20:23;;;;;;;18.50;8.45;;;;;;;;;;5034325;28;20111;-96
2021/10/13 11:22:59;;;;;;;16.85;7.68;;;;;;;;;;5033798;28;20021;-96
2021/10/13 11:25:25;;;;;;;14.95;7.40;;;;;;;;;;5053917;28;20022;-95
2021/10/13 11:28:02;;;;;;;14.60;6.75;;;;;;;;;;5057349;28;20064;-96
2021/10/13 11:30:29;;;;;;;18.33;7.90;;;;;;;;;;5048354;28;20036;-96
2021/10/13 11:32:55;;;;;;;15.48;7.57;;;;;;;;;;5031900;28;20049;-96
2021/10/13 11:35:20;;;;;;;14.20;7.60;;;;;;;;;;5033719;28;20056;-96
2021/10/13 11:37:52;;;;;;;17.27;7.10;;;;;;;;;;5033799;28;20503;-96
2021/10/13 11:40:18;;;;;;;18.88;7.25;;;;;;;;;;5032126;28;20017;-96
2021/10/13 11:42:43;;;;;;;19.10;6.50;;;;;;;;;;5033749;28;20031;-96
2021/10/13 11:45:13;;;;;;;16.23;6.53;;;;;;;;;;5033330;28;20401;-96
2021/10/13 11:47:38;;;;;;;13.52;7.32;;;;;;;;;;5033672;28;20083;-93
2021/10/13 11:50:09;;;;;;;16.80;6.57;;;;;;;;;;5034585;28;20029;-93
2021/10/13 11:52:37;;;;;;;13.20;6.40;;;;;;;;;;5064004;28;20025;-93
2021/10/13 11:55:07;;;;;;;12.70;4.80;;;;;;;;;;5033472;28;20064;-94
2021/10/13 11:57:33;;;;;;;12.63;4.45;;;;;;;;;;5033233;28;20074;-94
2021/10/13 12:00:07;;;;;;;13.75;4.25;;;;;;;;;;5060288;28;20458;-94
2021/10/13 12:02:33;;;;;;;8.15;3.13;;;;;;;;;;5032668;28;20026;-93
2021/10/13 12:05:02;;;;;;;8.98;3.08;;;;;;;;;;5054190;28;20134;-94
2021/10/13 12:07:27;;;;;;;5.57;2.90;;;;;;;;;;5063246;28;20030;-93
2021/10/13 12:09:57;;;;;;;7.85;2.72;;;;;;;;;;5033189;28;20032;-96
2021/10/13 12:12:22;;;;;;;6.13;1.95;;;;;;;;;;5039540;28;20098;-96
2021/10/13 12:14:49;;;;;;;7.50;1.50;;;;;;;;;;5037685;28;20029;-90
2021/10/13 12:17:31;;;;;;;8.82;1.83;;;;;;;;;;5034340;28;20029;-90
2021/10/13 12:19:57;;;;;;;4.03;1.85;;;;;;;;;;5069982;28;20025;-90
2021/10/13 12:22:23;;;;;;;5.70;1.92;;;;;;;;;;5042028;28;20052;-90
2021/10/13 12:24:48;;;;;;;6.57;2.03;;;;;;;;;;5032525;28;20045;-90
2021/10/13 12:27:24;;;;;;;7.65;2.28;;;;;;;;;;5037119;28;20404;-90
2021/10/13 12:29:49;;;;;;;5.57;1.90;;;;;;;;;;5036900;28;20013;-90
2021/10/13 12:32:18;;;;;;;9.60;1.88;;;;;;;;;;5037181;28;20029;-90
2021/10/13 12:34:43;;;;;;;5.53;1.75;;;;;;;;;;5039871;28;20465;-93
2021/10/13 12:37:08;;;;;;;5.47;2.03;;;;;;;;;;5033088;28;20014;-94
2021/10/13 12:39:34;;;;;;;7.60;1.98;;;;;;;;;;5038190;28;20017;-92
2021/10/13 12:42:02;;;;;;;4.55;1.83;;;;;;;;;;5042171;28;20041;-94
2021/10/13 12:44:28;;;;;;;5.03;1.35;;;;;;;;;;5033120;28;20026;-93
2021/10/13 12:47:05;;;;;;;5.68;1.80;;;;;;;;;;5041161;28;20026;-95
2021/10/13 12:49:32;;;;;;;5.00;1.77;;;;;;;;;;5060086;28;20044;-93
2021/10/13 12:51:59;;;;;;;6.43;1.33;;;;;;;;;;5036665;28;20056;-94
2021/10/13 12:54:32;;;;;;;6.30;1.67;;;;;;;;;;5066070;28;20507;-95
2021/10/13 12:56:58;;;;;;;7.60;1.48;;;;;;;;;;5067025;28;20465;-95
2021/10/13 12:59:23;;;;;;;5.13;1.60;;;;;;;;;;5032817;28;20105;-94
2021/10/13 13:01:49;;;;;;;10.13;1.80;;;;;;;;;;5032908;28;20032;-94
2021/10/13 13:04:14;;;;;;;3.50;1.27;;;;;;;;;;5073004;28;20226;-95
2021/10/13 13:06:40;;;;;;;6.22;1.90;;;;;;;;;;5035346;28;20469;-94
2021/10/13 13:09:05;;;;;;;4.97;1.45;;;;;;;;;;5034189;28;20029;-94
2021/10/13 13:11:31;;;;;;;4.40;1.60;;;;;;;;;;5033771;28;20492;-93
2021/10/13 13:13:56;;;;;;;3.70;1.45;;;;;;;;;;5046391;28;20033;-91
2021/10/13 13:16:24;;;;;;;6.50;1.85;;;;;;;;;;5039869;28;20017;-94
2021/10/13 13:18:49;;;;;;;8.55;1.45;;;;;;;;;;5041650;28;20548;-93
2021/10/13 13:21:15;;;;;;;5.70;1.25;;;;;;;;;;5037152;28;20044;-93
2021/10/13 13:23:40;;;;;;;10.73;1.67;;;;;;;;;;5034615;28;20033;-94
2021/10/13 13:26:05;;;;;;;4.97;1.77;;;;;;;;;;5038755;28;20030;-94
2021/10/13 13:28:30;;;;;;;6.40;1.40;;;;;;;;;;5034533;28;20021;-94
2021/10/13 13:30:55;;;;;;;9.55;1.70;;;;;;;;;;5065575;28;20014;-94
2021/10/13 13:33:21;;;;;;;4.88;1.52;;;;;;;;;;5035163;28;20029;-94
2021/10/13 13:35:46;;;;;;;5.07;1.77;;;;;;;;;;5032303;28;20120;-94
2021/10/13 13:38:11;;;;;;;5.97;1.55;;;;;;;;;;5035919;28;20466;-93
2021/10/13 13:40:38;;;;;;;9.80;1.77;;;;;;;;;;5032378;28;20044;-91
2021/10/13 13:43:04;;;;;;;4.63;1.70;;;;;;;;;;5035858;28;20100;-91
2021/10/13 13:45:29;;;;;;;7.45;1.40;;;;;;;;;;5035885;28;20071;-91
2021/10/13 13:47:55;;;;;;;10.93;1.75;;;;;;;;;;5082965;28;20021;-90
2021/10/13 13:50:20;;;;;;;6.70;1.70;;;;;;;;;;5044532;28;20025;-90
2021/10/13 13:52:45;;;;;;;11.00;1.90;;;;;;;;;;5045944;28;20027;-90
2021/10/13 13:55:10;;;;;;;5.72;1.58;;;;;;;;;;5044966;28;20029;-90
2021/10/13 13:57:36;;;;;;;4.32;1.30;;;;;;;;;;5035617;28;20044;-91
2021/10/13 14:00:01;;;;;;;6.97;2.08;;;;;;;;;;5035855;28;20033;-91
2021/10/13 14:02:26;;;;;;;9.02;1.70;;;;;;;;;;5035462;28;20445;-91
2021/10/13 14:04:51;;;;;;;8.77;1.80;;;;;;;;;;5035846;28;20029;-91
2021/10/13 14:07:17;;;;;;;7.03;1.65;;;;;;;;;;5036601;28;20021;-91
2021/10/13 14:09:42;;;;;;;5.13;1.92;;;;;;;;;;5042675;28;20470;-91
2021/10/13 14:12:08;;;;;;;6.65;1.80;;;;;;;;;;5035379;28;20392;-91
2021/10/13 14:14:33;;;;;;;8.95;2.28;;;;;;;;;;5061287;28;20037;-91
2021/10/13 14:16:59;;;;;;;9.05;2.45;;;;;;;;;;5036220;28;20522;-91
2021/10/13 14:19:24;;;;;;;9.07;2.05;;;;;;;;;;5035004;28;20029;-92
2021/10/13 14:21:49;;;;;;;4.18;1.75;;;;;;;;;;5021557;28;20079;-92
2021/10/13 14:24:14;;;;;;;12.00;2.08;;;;;;;;;;5035165;28;20024;-91
2021/10/13 14:26:40;;;;;;;7.30;2.03;;;;;;;;;;5035542;28;20368;-93
2021/10/13 14:29:05;;;;;;;5.55;2.28;;;;;;;;;;5068696;28;20045;-91
2021/10/13 14:31:30;;;;;;;11.27;2.40;;;;;;;;;;5082606;28;20025;-92
2021/10/13 14:33:56;;;;;;;4.72;2.28;;;;;;;;;;5070740;28;20473;-92